Time;durP1;ratioP1;P1;durP2;ratioP2;P2;SDS_P1;SDS_P2;PMS_P1;PMS_P2;Temp;Humidity;BMP_temperature;BMP_pressure;BME280_temperature;BME280_humidity;BME280_pressure;Samples;Min_cycle;Max_cycle;Signal;HPM_P1;HPM_P2
2021/07/14 00:02:08;;;;;;;2.00;1.90;;;;;;;;;;4993198;28;20214;-82
2021/07/14 00:04:35;;;;;;;2.17;2.07;;;;;;;;;;5008063;28;20233;-82
2021/07/14 00:07:02;;;;;;;2.30;2.20;;;;;;;;;;4993023;28;20206;-81
2021/07/14 00:09:29;;;;;;;3.73;2.37;;;;;;;;;;4991273;28;20539;-81
2021/07/14 00:11:57;;;;;;;2.57;1.90;;;;;;;;;;4993229;28;20264;-81
2021/07/14 00:14:35;;;;;;;4.23;2.50;;;;;;;;;;4993061;28;20248;-82
2021/07/14 00:17:20;;;;;;;4.00;2.40;;;;;;;;;;4991710;28;20198;-81
2021/07/14 00:22:32;;;;;;;2.20;2.10;;;;;;;;;;5007839;28;20240;-81
2021/07/14 00:24:59;;;;;;;4.63;2.30;;;;;;;;;;4993153;28;20205;-81
2021/07/14 00:27:26;;;;;;;4.77;2.37;;;;;;;;;;4992888;28;20217;-81
2021/07/14 00:29:55;;;;;;;2.63;2.10;;;;;;;;;;4992070;28;20554;-82
2021/07/14 00:32:22;;;;;;;2.43;2.23;;;;;;;;;;5007382;28;20225;-82
2021/07/14 00:34:49;;;;;;;2.60;2.00;;;;;;;;;;4993119;28;20292;-81
2021/07/14 00:37:18;;;;;;;2.10;1.90;;;;;;;;;;4992928;28;20237;-81
2021/07/14 00:39:45;;;;;;;1.87;1.77;;;;;;;;;;5011105;28;20625;-81
2021/07/14 00:42:12;;;;;;;5.43;2.20;;;;;;;;;;4996381;28;20205;-81
2021/07/14 00:44:38;;;;;;;3.33;1.80;;;;;;;;;;4996693;28;20308;-81
2021/07/14 00:47:07;;;;;;;2.97;2.10;;;;;;;;;;4996486;28;20572;-81
2021/07/14 00:49:34;;;;;;;4.53;2.00;;;;;;;;;;4994708;28;20216;-81
2021/07/14 00:52:02;;;;;;;4.90;2.00;;;;;;;;;;4995889;28;20284;-82
2021/07/14 00:54:29;;;;;;;2.47;2.30;;;;;;;;;;4995063;28;20205;-82
2021/07/14 00:56:56;;;;;;;7.60;2.70;;;;;;;;;;4994831;28;20206;-82
2021/07/14 00:59:22;;;;;;;3.07;2.60;;;;;;;;;;4994133;28;20221;-82
2021/07/14 01:01:49;;;;;;;4.67;2.50;;;;;;;;;;4994429;28;20202;-82
2021/07/14 01:04:22;;;;;;;2.03;1.93;;;;;;;;;;4996308;28;20221;-81
2021/07/14 01:06:51;;;;;;;3.93;2.13;;;;;;;;;;4995877;28;20224;-82
2021/07/14 01:09:20;;;;;;;2.07;2.03;;;;;;;;;;4995982;28;20542;-81
2021/07/14 01:11:48;;;;;;;3.13;2.07;;;;;;;;;;5010902;28;20218;-82
2021/07/14 01:14:21;;;;;;;4.07;2.20;;;;;;;;;;4994721;28;20201;-82
2021/07/14 01:16:50;;;;;;;4.73;1.93;;;;;;;;;;4995603;28;20256;-82
2021/07/14 01:19:24;;;;;;;2.33;2.00;;;;;;;;;;4994484;28;20209;-82
2021/07/14 01:21:51;;;;;;;4.47;2.53;;;;;;;;;;4994380;28;20252;-81
2021/07/14 01:24:22;;;;;;;7.37;4.33;;;;;;;;;;4993922;28;20693;-82
2021/07/14 01:27:09;;;;;;;17.27;6.13;;;;;;;;;;4995827;28;20244;-82
2021/07/14 01:29:36;;;;;;;27.00;9.40;;;;;;;;;;4993964;28;20561;-81
2021/07/14 01:32:04;;;;;;;18.23;8.07;;;;;;;;;;4994016;28;20240;-82
2021/07/14 01:34:31;;;;;;;17.03;6.70;;;;;;;;;;5010243;28;20190;-82
2021/07/14 01:36:58;;;;;;;4.33;3.20;;;;;;;;;;4993954;28;20221;-82
2021/07/14 01:39:26;;;;;;;5.50;2.30;;;;;;;;;;5010302;28;20540;-82
2021/07/14 01:41:53;;;;;;;4.63;2.50;;;;;;;;;;4995118;28;20241;-82
2021/07/14 01:44:23;;;;;;;5.53;2.27;;;;;;;;;;5010088;28;20193;-82
2021/07/14 01:46:50;;;;;;;5.50;2.20;;;;;;;;;;4993966;28;20205;-82
2021/07/14 01:49:18;;;;;;;2.70;2.50;;;;;;;;;;5009880;28;20212;-82
2021/07/14 01:51:48;;;;;;;5.73;2.40;;;;;;;;;;4994139;28;20264;-82
2021/07/14 01:54:15;;;;;;;2.40;2.20;;;;;;;;;;4995248;28;20244;-82
2021/07/14 01:56:43;;;;;;;9.83;2.33;;;;;;;;;;4995473;28;20248;-81
2021/07/14 01:59:11;;;;;;;9.53;2.20;;;;;;;;;;4994044;28;20198;-81
2021/07/14 02:01:41;;;;;;;6.73;2.17;;;;;;;;;;5009832;28;20260;-82
2021/07/14 02:06:50;;;;;;;6.43;3.13;;;;;;;;;;4994240;28;20244;-82
2021/07/14 02:09:17;;;;;;;2.87;2.30;;;;;;;;;;4995048;28;20210;-82
2021/07/14 02:11:46;;;;;;;2.10;2.00;;;;;;;;;;4993310;28;20205;-81
2021/07/14 02:14:13;;;;;;;2.53;2.33;;;;;;;;;;4994807;28;20237;-82
2021/07/14 02:16:42;;;;;;;5.70;2.60;;;;;;;;;;4994765;28;20240;-81
2021/07/14 02:19:09;;;;;;;4.10;2.80;;;;;;;;;;5009420;28;20224;-81
2021/07/14 02:21:36;;;;;;;7.63;3.80;;;;;;;;;;4994497;28;20217;-82
2021/07/14 02:24:02;;;;;;;19.17;6.50;;;;;;;;;;4994650;28;20221;-82
2021/07/14 02:26:30;;;;;;;11.90;6.30;;;;;;;;;;4994425;28;20205;-81
2021/07/14 02:28:56;;;;;;;33.37;10.43;;;;;;;;;;4993218;28;20225;-82
2021/07/14 02:31:23;;;;;;;26.10;10.53;;;;;;;;;;4992903;28;20210;-81
2021/07/14 02:33:51;;;;;;;10.87;5.67;;;;;;;;;;4994598;28;20236;-82
2021/07/14 02:36:18;;;;;;;4.63;3.10;;;;;;;;;;4994319;28;20537;-81
2021/07/14 02:38:49;;;;;;;7.30;2.70;;;;;;;;;;4992652;28;20571;-82
2021/07/14 02:41:20;;;;;;;2.90;2.63;;;;;;;;;;4994406;28;20673;-82
2021/07/14 02:43:52;;;;;;;3.53;2.70;;;;;;;;;;4994123;28;20206;-82
2021/07/14 02:46:23;;;;;;;2.60;2.30;;;;;;;;;;4992758;28;20241;-82
2021/07/14 02:48:52;;;;;;;5.63;2.53;;;;;;;;;;4994141;28;20237;-82
2021/07/14 02:51:20;;;;;;;5.00;2.57;;;;;;;;;;4992665;28;20221;-82
2021/07/14 02:53:48;;;;;;;3.57;2.53;;;;;;;;;;5009011;28;20260;-81
2021/07/14 02:56:18;;;;;;;6.33;3.10;;;;;;;;;;4993996;28;20228;-81
2021/07/14 02:58:48;;;;;;;5.40;3.10;;;;;;;;;;5008664;28;20210;-81
2021/07/14 03:01:15;;;;;;;4.97;4.33;;;;;;;;;;4993239;28;20242;-82
2021/07/14 03:03:43;;;;;;;18.57;7.17;;;;;;;;;;5008581;28;20194;-81
2021/07/14 03:06:11;;;;;;;20.17;9.70;;;;;;;;;;4994037;28;20340;-81
2021/07/14 03:08:39;;;;;;;26.63;10.87;;;;;;;;;;4992016;28;20206;-81
2021/07/14 03:11:05;;;;;;;19.77;9.40;;;;;;;;;;4992500;28;20190;-81
2021/07/14 03:13:36;;;;;;;16.90;8.63;;;;;;;;;;5008876;28;20289;-81
2021/07/14 03:16:03;;;;;;;23.73;8.97;;;;;;;;;;4993478;28;20245;-81
2021/07/14 03:18:31;;;;;;;7.33;3.60;;;;;;;;;;4993605;28;20217;-81
2021/07/14 03:20:58;;;;;;;6.40;3.27;;;;;;;;;;5008600;28;20217;-81
2021/07/14 03:23:26;;;;;;;4.23;3.17;;;;;;;;;;5008497;28;20186;-81
2021/07/14 03:25:54;;;;;;;3.67;3.30;;;;;;;;;;4992082;28;20244;-81
2021/07/14 03:28:21;;;;;;;3.30;3.10;;;;;;;;;;5008682;28;20204;-82
2021/07/14 03:30:48;;;;;;;4.07;3.47;;;;;;;;;;4992046;28;20276;-81
2021/07/14 03:33:15;;;;;;;5.30;3.40;;;;;;;;;;4991858;28;20253;-80
2021/07/14 03:35:42;;;;;;;3.40;3.10;;;;;;;;;;5008489;28;20194;-80
2021/07/14 03:38:10;;;;;;;4.27;3.30;;;;;;;;;;4992195;28;20201;-81
2021/07/14 03:40:39;;;;;;;3.37;3.10;;;;;;;;;;4993408;28;20635;-81
2021/07/14 03:43:06;;;;;;;7.00;3.40;;;;;;;;;;4992041;28;20190;-83
2021/07/14 03:45:33;;;;;;;3.33;3.10;;;;;;;;;;4992104;28;20213;-81
2021/07/14 03:48:01;;;;;;;4.10;2.77;;;;;;;;;;4993637;28;20218;-81
2021/07/14 03:50:28;;;;;;;3.20;3.00;;;;;;;;;;5008459;28;20697;-82
2021/07/14 03:52:54;;;;;;;3.50;3.20;;;;;;;;;;4993023;28;20264;-81
2021/07/14 03:55:21;;;;;;;5.33;3.00;;;;;;;;;;5008741;28;20198;-81
2021/07/14 03:57:49;;;;;;;6.23;4.30;;;;;;;;;;5008392;28;20198;-81
2021/07/14 04:00:16;;;;;;;10.13;3.30;;;;;;;;;;4993084;28;20245;-81
2021/07/14 04:02:44;;;;;;;4.63;2.90;;;;;;;;;;5008320;28;20205;-82
2021/07/14 04:05:12;;;;;;;4.53;3.20;;;;;;;;;;4993346;28;20206;-81
2021/07/14 04:07:41;;;;;;;10.37;3.00;;;;;;;;;;5008097;28;20251;-82
2021/07/14 04:10:09;;;;;;;3.70;3.30;;;;;;;;;;4992098;28;20209;-81
2021/07/14 04:12:36;;;;;;;5.50;2.90;;;;;;;;;;4993286;28;20312;-81
2021/07/14 04:15:04;;;;;;;6.70;2.97;;;;;;;;;;4995306;28;20206;-81
2021/07/14 04:17:31;;;;;;;2.97;2.70;;;;;;;;;;4996648;28;20217;-81
2021/07/14 04:19:57;;;;;;;4.53;2.63;;;;;;;;;;4995346;28;20206;-80
2021/07/14 04:22:24;;;;;;;8.23;2.90;;;;;;;;;;4996778;28;20258;-81
2021/07/14 04:24:51;;;;;;;5.50;2.83;;;;;;;;;;4996860;28;20249;-80
2021/07/14 04:27:17;;;;;;;3.17;2.83;;;;;;;;;;5011869;28;20286;-82
2021/07/14 04:29:44;;;;;;;5.00;2.60;;;;;;;;;;5011833;28;20668;-80
2021/07/14 04:32:12;;;;;;;3.33;3.00;;;;;;;;;;5011897;28;20201;-80
2021/07/14 04:34:39;;;;;;;3.20;2.90;;;;;;;;;;5011389;28;20230;-81
2021/07/14 04:37:05;;;;;;;5.10;2.87;;;;;;;;;;5011443;28;20210;-79
2021/07/14 04:39:32;;;;;;;2.77;2.67;;;;;;;;;;4995270;28;20233;-80
2021/07/14 04:41:58;;;;;;;4.93;3.20;;;;;;;;;;4995067;28;20301;-80
2021/07/14 04:44:34;;;;;;;5.77;3.07;;;;;;;;;;4996248;28;20182;-80
2021/07/14 04:47:01;;;;;;;3.23;3.03;;;;;;;;;;5011693;28;20221;-82
2021/07/14 04:49:29;;;;;;;3.43;3.13;;;;;;;;;;4995016;28;20209;-82
2021/07/14 04:51:56;;;;;;;10.90;3.57;;;;;;;;;;5011417;28;20265;-81
2021/07/14 04:54:22;;;;;;;13.20;3.53;;;;;;;;;;5010884;28;20291;-81
2021/07/14 04:56:50;;;;;;;3.73;3.43;;;;;;;;;;4996277;28;20217;-83
2021/07/14 04:59:17;;;;;;;3.53;3.23;;;;;;;;;;4994959;28;20202;-83
2021/07/14 05:01:44;;;;;;;5.23;3.63;;;;;;;;;;4994756;28;20198;-81
2021/07/14 05:04:12;;;;;;;7.03;3.63;;;;;;;;;;4995878;28;20201;-80
2021/07/14 05:06:40;;;;;;;3.70;3.37;;;;;;;;;;5010937;28;20197;-80
2021/07/14 05:09:07;;;;;;;5.13;3.27;;;;;;;;;;4996005;28;20256;-81
2021/07/14 05:11:34;;;;;;;3.83;3.33;;;;;;;;;;4995883;28;20735;-82
2021/07/14 05:14:00;;;;;;;9.30;3.23;;;;;;;;;;4995750;28;20252;-82
2021/07/14 05:16:27;;;;;;;3.40;3.10;;;;;;;;;;4994208;28;20674;-80
2021/07/14 05:18:54;;;;;;;6.07;3.57;;;;;;;;;;4994286;28;20855;-81
2021/07/14 05:21:20;;;;;;;3.63;3.23;;;;;;;;;;4995255;28;20217;-80
2021/07/14 05:23:48;;;;;;;3.00;2.80;;;;;;;;;;4995602;28;20669;-81
2021/07/14 05:26:16;;;;;;;4.17;3.27;;;;;;;;;;4994230;28;20233;-81
2021/07/14 05:28:43;;;;;;;6.40;2.93;;;;;;;;;;5010622;28;20206;-81
2021/07/14 05:31:10;;;;;;;4.57;2.60;;;;;;;;;;4995508;28;20217;-81
2021/07/14 05:33:36;;;;;;;3.10;2.90;;;;;;;;;;5010801;28;20282;-83
2021/07/14 05:36:03;;;;;;;5.30;2.60;;;;;;;;;;4995448;28;20214;-84
2021/07/14 05:38:30;;;;;;;2.77;2.57;;;;;;;;;;4994196;28;20259;-83
2021/07/14 05:40:58;;;;;;;3.10;2.83;;;;;;;;;;4995616;28;20225;-83
2021/07/14 05:43:25;;;;;;;3.23;2.73;;;;;;;;;;4993858;28;20198;-83
2021/07/14 05:45:51;;;;;;;2.30;2.20;;;;;;;;;;4993880;28;20212;-83
2021/07/14 05:48:18;;;;;;;5.73;2.27;;;;;;;;;;4995617;28;20635;-83
2021/07/14 05:50:45;;;;;;;2.47;2.27;;;;;;;;;;4993593;28;20256;-82
2021/07/14 05:53:12;;;;;;;2.20;2.10;;;;;;;;;;5010097;28;20295;-82
2021/07/14 05:55:38;;;;;;;2.37;2.20;;;;;;;;;;4993413;28;20256;-82
2021/07/14 05:58:07;;;;;;;4.03;2.20;;;;;;;;;;5010142;28;20190;-84
2021/07/14 06:00:34;;;;;;;2.10;2.00;;;;;;;;;;4993476;28;20732;-83
2021/07/14 06:03:01;;;;;;;3.10;2.00;;;;;;;;;;5010204;28;20198;-83
2021/07/14 06:05:27;;;;;;;2.10;1.90;;;;;;;;;;4993328;28;20209;-83
2021/07/14 06:07:54;;;;;;;1.90;1.80;;;;;;;;;;4995284;28;20209;-83
2021/07/14 06:10:21;;;;;;;2.20;2.10;;;;;;;;;;5009907;28;20226;-84
2021/07/14 06:12:47;;;;;;;3.73;2.30;;;;;;;;;;4994633;28;20183;-84
2021/07/14 06:15:15;;;;;;;1.93;1.90;;;;;;;;;;4993236;28;20237;-82
2021/07/14 06:17:42;;;;;;;2.07;1.93;;;;;;;;;;5009740;28;20210;-83
2021/07/14 06:20:09;;;;;;;2.33;2.23;;;;;;;;;;4994677;28;20262;-83
2021/07/14 06:22:36;;;;;;;3.00;2.60;;;;;;;;;;4993218;28;20220;-86
2021/07/14 06:25:04;;;;;;;3.10;2.70;;;;;;;;;;4995090;28;20217;-85
2021/07/14 06:27:30;;;;;;;3.17;2.90;;;;;;;;;;4994861;28;20186;-83
2021/07/14 06:29:57;;;;;;;5.53;3.47;;;;;;;;;;4993299;28;20565;-84
2021/07/14 06:32:25;;;;;;;8.63;4.53;;;;;;;;;;5009523;28;20601;-82
2021/07/14 06:34:52;;;;;;;12.20;4.80;;;;;;;;;;4993194;28;20253;-83
2021/07/14 06:37:18;;;;;;;7.50;3.90;;;;;;;;;;4994598;28;20182;-85
2021/07/14 06:39:45;;;;;;;5.33;3.83;;;;;;;;;;4994205;28;20241;-85
2021/07/14 06:42:12;;;;;;;6.53;4.90;;;;;;;;;;4993095;28;20208;-85
2021/07/14 06:44:39;;;;;;;3.47;3.17;;;;;;;;;;4993205;28;20190;-84
2021/07/14 06:47:05;;;;;;;4.80;3.60;;;;;;;;;;4993259;28;20264;-84
2021/07/14 06:49:33;;;;;;;3.30;3.03;;;;;;;;;;5009022;28;20185;-85
2021/07/14 06:52:01;;;;;;;5.47;3.50;;;;;;;;;;4992590;28;20230;-84
2021/07/14 06:54:27;;;;;;;4.53;3.70;;;;;;;;;;4994312;28;20256;-86
2021/07/14 06:56:54;;;;;;;4.23;3.10;;;;;;;;;;4994359;28;20638;-85
2021/07/14 06:59:21;;;;;;;5.77;3.47;;;;;;;;;;4992492;28;20197;-84
2021/07/14 07:01:48;;;;;;;3.67;3.37;;;;;;;;;;5009250;28;20210;-85
2021/07/14 07:04:15;;;;;;;5.73;3.30;;;;;;;;;;4994069;28;20237;-85
2021/07/14 07:06:43;;;;;;;4.60;3.20;;;;;;;;;;4992461;28;20253;-85
2021/07/14 07:09:09;;;;;;;4.10;3.13;;;;;;;;;;5008751;28;20594;-85
2021/07/14 07:11:37;;;;;;;3.63;3.33;;;;;;;;;;5008432;28;20209;-85
2021/07/14 07:14:03;;;;;;;4.00;3.70;;;;;;;;;;5008954;28;20244;-86
2021/07/14 07:16:30;;;;;;;6.50;3.40;;;;;;;;;;4993888;28;20217;-85
2021/07/14 07:18:57;;;;;;;4.40;3.50;;;;;;;;;;4994271;28;20188;-85
2021/07/14 07:21:25;;;;;;;4.70;3.97;;;;;;;;;;4992507;28;20205;-86
2021/07/14 07:23:53;;;;;;;3.80;3.40;;;;;;;;;;4993797;28;20178;-84
2021/07/14 07:26:20;;;;;;;8.37;4.10;;;;;;;;;;4992521;28;20190;-84
2021/07/14 07:28:47;;;;;;;5.20;3.67;;;;;;;;;;5008662;28;20240;-83
2021/07/14 07:31:14;;;;;;;9.40;4.17;;;;;;;;;;4992262;28;20208;-85
2021/07/14 07:33:40;;;;;;;5.47;3.60;;;;;;;;;;4993358;28;20209;-84
2021/07/14 07:36:07;;;;;;;4.00;3.70;;;;;;;;;;4991912;28;20198;-84
2021/07/14 07:38:35;;;;;;;3.97;3.67;;;;;;;;;;4993455;28;20212;-85
2021/07/14 07:41:04;;;;;;;9.43;3.70;;;;;;;;;;4992215;28;20206;-84
2021/07/14 07:43:31;;;;;;;3.87;3.57;;;;;;;;;;5008709;28;20200;-85
2021/07/14 07:45:58;;;;;;;4.00;3.70;;;;;;;;;;4991956;28;20197;-84
2021/07/14 07:48:25;;;;;;;4.43;3.70;;;;;;;;;;5009829;28;20209;-85
2021/07/14 07:50:52;;;;;;;3.87;3.57;;;;;;;;;;4996105;28;20271;-83
2021/07/14 07:53:19;;;;;;;3.97;3.63;;;;;;;;;;5012373;28;20375;-84
2021/07/14 07:55:46;;;;;;;4.13;3.50;;;;;;;;;;4997204;28;20249;-85
2021/07/14 07:58:15;;;;;;;4.77;4.03;;;;;;;;;;4997430;28;20201;-85
2021/07/14 08:00:41;;;;;;;5.57;3.57;;;;;;;;;;4996046;28;20237;-85
2021/07/14 08:03:08;;;;;;;6.83;3.67;;;;;;;;;;4997334;28;20762;-84
2021/07/14 08:05:35;;;;;;;5.53;3.70;;;;;;;;;;4996002;28;20665;-84
2021/07/14 08:08:02;;;;;;;3.80;3.43;;;;;;;;;;4996161;28;20240;-84
2021/07/14 08:10:29;;;;;;;4.03;3.50;;;;;;;;;;4995251;28;20213;-83
2021/07/14 08:12:55;;;;;;;4.43;3.27;;;;;;;;;;4996740;28;20248;-84
2021/07/14 08:15:23;;;;;;;3.87;3.40;;;;;;;;;;5011761;28;20276;-84
2021/07/14 08:17:50;;;;;;;10.50;4.07;;;;;;;;;;5011704;28;20551;-84
2021/07/14 08:20:17;;;;;;;3.60;3.30;;;;;;;;;;5011896;28;20201;-82
2021/07/14 08:22:44;;;;;;;4.83;3.37;;;;;;;;;;4995257;28;20205;-83
2021/07/14 08:25:11;;;;;;;3.60;3.40;;;;;;;;;;4997336;28;20654;-84
2021/07/14 08:27:39;;;;;;;6.27;3.50;;;;;;;;;;4995094;28;20201;-83
2021/07/14 08:30:06;;;;;;;4.17;3.27;;;;;;;;;;5012434;28;20197;-84
2021/07/14 08:32:35;;;;;;;3.37;3.07;;;;;;;;;;5011559;28;20202;-84
2021/07/14 08:35:02;;;;;;;4.13;2.90;;;;;;;;;;4996657;28;20257;-84
2021/07/14 08:37:28;;;;;;;3.47;3.00;;;;;;;;;;4996565;28;20217;-84
2021/07/14 08:39:56;;;;;;;3.67;3.10;;;;;;;;;;4995126;28;20208;-82
2021/07/14 08:42:23;;;;;;;5.10;3.10;;;;;;;;;;4994788;28;20205;-83
2021/07/14 08:44:49;;;;;;;5.20;3.37;;;;;;;;;;4995949;28;20673;-84
2021/07/14 08:47:16;;;;;;;3.20;3.00;;;;;;;;;;4996564;28;20217;-85
2021/07/14 08:49:46;;;;;;;3.20;2.83;;;;;;;;;;5011729;28;20579;-85
2021/07/14 08:52:13;;;;;;;5.20;3.20;;;;;;;;;;4994964;28;20234;-84
2021/07/14 08:54:41;;;;;;;2.97;2.67;;;;;;;;;;4994516;28;20276;-83
2021/07/14 08:57:08;;;;;;;4.63;2.90;;;;;;;;;;4994951;28;20205;-84
2021/07/14 08:59:36;;;;;;;3.23;3.00;;;;;;;;;;4995177;28;20610;-85
2021/07/14 09:02:03;;;;;;;3.70;2.97;;;;;;;;;;4995274;28;20209;-85
2021/07/14 09:04:30;;;;;;;4.33;3.03;;;;;;;;;;4996376;28;20185;-84
2021/07/14 09:06:58;;;;;;;3.30;3.10;;;;;;;;;;4994841;28;20255;-85
2021/07/14 09:09:25;;;;;;;3.13;2.83;;;;;;;;;;5010807;28;20202;-85
2021/07/14 09:11:52;;;;;;;4.40;3.00;;;;;;;;;;4994838;28;20202;-85
2021/07/14 09:14:27;;;;;;;3.50;2.77;;;;;;;;;;4994811;28;20206;-82
2021/07/14 09:16:53;;;;;;;5.33;2.97;;;;;;;;;;4995507;28;20205;-88
2021/07/14 09:19:23;;;;;;;2.73;2.50;;;;;;;;;;4996072;28;20256;-88
2021/07/14 09:21:49;;;;;;;4.87;2.87;;;;;;;;;;5011897;28;20194;-88
2021/07/14 09:24:28;;;;;;;7.27;2.93;;;;;;;;;;4995786;28;20248;-84
2021/07/14 09:26:56;;;;;;;5.00;2.70;;;;;;;;;;4998080;28;20200;-87
2021/07/14 09:29:23;;;;;;;2.87;2.67;;;;;;;;;;4996121;28;20272;-88
2021/07/14 09:31:50;;;;;;;3.27;2.97;;;;;;;;;;4995599;28;20939;-83
2021/07/14 09:34:28;;;;;;;2.67;2.57;;;;;;;;;;5012729;28;20268;-88
2021/07/14 09:36:58;;;;;;;3.90;2.73;;;;;;;;;;4996735;28;20181;-85
2021/07/14 09:39:34;;;;;;;2.50;2.40;;;;;;;;;;4997059;28;20720;-87
2021/07/14 09:42:02;;;;;;;2.60;2.40;;;;;;;;;;4995777;28;20256;-87
2021/07/14 09:44:29;;;;;;;2.70;2.50;;;;;;;;;;4996505;28;20209;-86
2021/07/14 09:47:08;;;;;;;2.87;2.17;;;;;;;;;;4994913;28;20209;-84
2021/07/14 09:49:35;;;;;;;2.33;2.23;;;;;;;;;;4996879;28;20678;-84
2021/07/14 09:52:05;;;;;;;4.63;2.30;;;;;;;;;;4996177;28;20292;-87
2021/07/14 09:54:33;;;;;;;2.73;2.53;;;;;;;;;;5000367;28;20258;-92
2021/07/14 09:57:07;;;;;;;4.63;2.23;;;;;;;;;;5015680;28;20218;-83
2021/07/14 09:59:34;;;;;;;6.10;2.47;;;;;;;;;;4998214;28;20210;-94
2021/07/14 10:02:01;;;;;;;2.97;2.77;;;;;;;;;;4999002;28;20200;-89
2021/07/14 10:04:30;;;;;;;2.70;2.30;;;;;;;;;;4998957;28;20190;-90
2021/07/14 10:07:06;;;;;;;3.20;2.00;;;;;;;;;;5016086;28;20194;-88
2021/07/14 10:09:34;;;;;;;3.03;2.30;;;;;;;;;;4999414;28;20236;-92
2021/07/14 10:12:20;;;;;;;2.60;2.40;;;;;;;;;;5016647;28;20189;-88
2021/07/14 10:14:47;;;;;;;3.00;2.57;;;;;;;;;;5017664;28;20221;-94
2021/07/14 10:17:13;;;;;;;4.00;2.47;;;;;;;;;;5018842;28;20571;-89
2021/07/14 10:19:40;;;;;;;4.07;2.77;;;;;;;;;;5016599;28;20228;-91
2021/07/14 10:22:07;;;;;;;2.93;2.63;;;;;;;;;;5000311;28;20692;-92
2021/07/14 10:24:35;;;;;;;2.73;1.83;;;;;;;;;;5016311;28;20720;-90
2021/07/14 10:27:03;;;;;;;2.50;2.30;;;;;;;;;;4999764;28;20193;-93
2021/07/14 10:29:30;;;;;;;2.77;2.20;;;;;;;;;;4997816;28;20210;-90
2021/07/14 10:31:57;;;;;;;3.40;2.30;;;;;;;;;;4999037;28;20214;-93
2021/07/14 10:34:24;;;;;;;2.83;2.20;;;;;;;;;;5013574;28;20193;-91
2021/07/14 10:36:51;;;;;;;2.70;2.50;;;;;;;;;;4999428;28;20198;-91
2021/07/14 10:39:18;;;;;;;2.47;2.27;;;;;;;;;;5014815;28;20198;-91
2021/07/14 10:41:47;;;;;;;3.90;2.30;;;;;;;;;;5000593;28;20615;-93
2021/07/14 10:44:16;;;;;;;4.60;2.40;;;;;;;;;;5001027;28;20197;-93
2021/07/14 10:46:43;;;;;;;2.60;2.40;;;;;;;;;;4998333;28;20194;-93
2021/07/14 10:49:10;;;;;;;2.50;2.40;;;;;;;;;;5014668;28;20194;-91
2021/07/14 10:51:37;;;;;;;4.27;2.23;;;;;;;;;;4998414;28;20229;-88
2021/07/14 10:54:05;;;;;;;2.67;2.47;;;;;;;;;;5016646;28;20192;-94
2021/07/14 10:56:34;;;;;;;4.47;2.50;;;;;;;;;;5016107;28;20209;-94
2021/07/14 10:59:02;;;;;;;3.23;2.00;;;;;;;;;;4999421;28;20181;-89
2021/07/14 11:01:42;;;;;;;3.03;2.60;;;;;;;;;;4996203;28;20201;-87
2021/07/14 11:04:13;;;;;;;2.40;2.30;;;;;;;;;;4995327;28;20201;-90
2021/07/14 11:06:53;;;;;;;2.93;2.20;;;;;;;;;;4995776;28;20201;-93
2021/07/14 11:09:30;;;;;;;2.77;2.57;;;;;;;;;;4998158;28;20236;-95
2021/07/14 11:11:57;;;;;;;3.03;2.73;;;;;;;;;;4997455;28;20209;-93
2021/07/14 11:14:35;;;;;;;2.60;2.40;;;;;;;;;;4998323;28;20181;-94
2021/07/14 11:17:02;;;;;;;2.33;2.23;;;;;;;;;;5012791;28;20206;-91
2021/07/14 11:19:42;;;;;;;2.53;2.37;;;;;;;;;;4998440;28;20186;-94
2021/07/14 11:22:09;;;;;;;7.47;3.00;;;;;;;;;;5012262;28;20213;-94
2021/07/14 11:24:53;;;;;;;3.03;2.53;;;;;;;;;;4997843;28;20236;-93
2021/07/14 11:27:53;;;;;;;3.53;2.27;;;;;;;;;;4996572;28;20190;-94
2021/07/14 11:30:32;;;;;;;3.13;2.07;;;;;;;;;;4996335;28;20759;-94
2021/07/14 11:32:59;;;;;;;2.63;2.43;;;;;;;;;;4998122;28;20206;-92
2021/07/14 11:35:36;;;;;;;2.93;2.23;;;;;;;;;;4997332;28;20642;-94
2021/07/14 11:38:04;;;;;;;4.20;2.00;;;;;;;;;;4997268;28;20201;-95
2021/07/14 11:40:41;;;;;;;8.80;2.73;;;;;;;;;;4998218;28;20237;-92
2021/07/14 11:43:31;;;;;;;2.40;2.20;;;;;;;;;;5012614;28;20197;-95
2021/07/14 11:46:05;;;;;;;2.43;2.33;;;;;;;;;;4997163;28;20198;-92
2021/07/14 11:48:33;;;;;;;5.47;2.30;;;;;;;;;;4994997;28;20217;-93
2021/07/14 11:51:02;;;;;;;2.77;2.50;;;;;;;;;;4994694;28;20213;-91
2021/07/14 11:53:34;;;;;;;2.30;2.20;;;;;;;;;;4994694;28;20348;-87
2021/07/14 11:56:02;;;;;;;2.30;2.10;;;;;;;;;;4995098;28;20217;-91
2021/07/14 11:58:48;;;;;;;2.80;2.60;;;;;;;;;;5010777;28;20206;-90
2021/07/14 12:01:29;;;;;;;2.80;2.60;;;;;;;;;;5009555;28;20209;-92
2021/07/14 12:04:09;;;;;;;2.73;2.57;;;;;;;;;;4994028;28;20264;-89
2021/07/14 12:06:39;;;;;;;4.17;2.83;;;;;;;;;;5008953;28;20588;-89
2021/07/14 12:09:23;;;;;;;3.13;2.40;;;;;;;;;;4992326;28;20280;-90
2021/07/14 12:11:50;;;;;;;2.50;2.40;;;;;;;;;;5009006;28;20205;-89
2021/07/14 12:14:18;;;;;;;2.80;1.97;;;;;;;;;;5008858;28;20769;-88
2021/07/14 12:16:45;;;;;;;2.70;2.30;;;;;;;;;;4994611;28;20233;-89
2021/07/14 12:19:19;;;;;;;3.70;2.30;;;;;;;;;;5010037;28;20693;-89
2021/07/14 12:21:45;;;;;;;2.63;2.40;;;;;;;;;;4992957;28;20253;-90
2021/07/14 12:24:27;;;;;;;3.80;2.60;;;;;;;;;;4995038;28;20213;-91
2021/07/14 12:26:57;;;;;;;2.37;2.10;;;;;;;;;;5010324;28;20202;-87
2021/07/14 12:29:24;;;;;;;3.03;2.23;;;;;;;;;;4994269;28;20183;-88
2021/07/14 12:31:51;;;;;;;4.87;2.30;;;;;;;;;;5009181;28;20665;-90
2021/07/14 12:34:22;;;;;;;2.57;2.37;;;;;;;;;;4995090;28;20210;-88
2021/07/14 12:36:49;;;;;;;3.03;2.67;;;;;;;;;;4997899;28;20209;-90
2021/07/14 12:39:20;;;;;;;4.43;2.50;;;;;;;;;;5014118;28;20201;-90
2021/07/14 12:41:49;;;;;;;2.87;2.40;;;;;;;;;;5012673;28;20205;-91
2021/07/14 12:47:10;;;;;;;5.07;2.70;;;;;;;;;;5131145;27;21135;-84
2021/07/14 12:49:37;;;;;;;2.50;2.40;;;;;;;;;;5090844;28;20208;-87
2021/07/14 12:52:05;;;;;;;2.73;2.10;;;;;;;;;;5090216;28;20554;-84
2021/07/14 12:54:32;;;;;;;2.40;2.20;;;;;;;;;;5072311;28;20236;-86
2021/07/14 12:57:06;;;;;;;2.47;2.30;;;;;;;;;;5071813;28;20183;-82
2021/07/14 12:59:33;;;;;;;3.03;2.30;;;;;;;;;;5089995;28;20206;-84
2021/07/14 13:02:00;;;;;;;2.47;2.27;;;;;;;;;;5090223;28;20178;-85
2021/07/14 13:04:28;;;;;;;2.43;2.23;;;;;;;;;;5090072;28;20178;-83
2021/07/14 13:06:55;;;;;;;2.13;2.00;;;;;;;;;;5071425;28;20249;-83
2021/07/14 13:09:22;;;;;;;2.60;2.10;;;;;;;;;;5072074;28;20190;-85
2021/07/14 13:11:49;;;;;;;2.13;2.03;;;;;;;;;;5089801;28;20209;-85
2021/07/14 13:14:16;;;;;;;2.30;2.20;;;;;;;;;;5071812;28;20240;-85
2021/07/14 13:16:43;;;;;;;1.90;1.80;;;;;;;;;;5071737;28;20189;-82
2021/07/14 13:19:16;;;;;;;3.43;2.03;;;;;;;;;;5071609;28;20194;-84
2021/07/14 13:21:46;;;;;;;2.20;1.77;;;;;;;;;;5071477;28;20194;-83
2021/07/14 13:24:12;;;;;;;1.90;1.80;;;;;;;;;;5071741;28;20256;-84
2021/07/14 13:26:39;;;;;;;2.33;2.20;;;;;;;;;;5089522;28;20198;-83
2021/07/14 13:29:06;;;;;;;2.23;2.03;;;;;;;;;;5070682;28;20929;-83
2021/07/14 13:31:33;;;;;;;1.87;1.77;;;;;;;;;;5071052;28;20194;-83
2021/07/14 13:34:01;;;;;;;2.10;1.90;;;;;;;;;;5071137;28;20244;-83
2021/07/14 13:36:29;;;;;;;2.10;2.00;;;;;;;;;;5071002;28;20214;-84
2021/07/14 13:38:57;;;;;;;3.27;1.90;;;;;;;;;;5089371;28;20204;-82
2021/07/14 13:41:25;;;;;;;2.43;2.23;;;;;;;;;;5070809;28;20213;-83
2021/07/14 13:43:54;;;;;;;1.97;1.87;;;;;;;;;;5089185;28;20263;-83
2021/07/14 13:46:22;;;;;;;2.47;2.27;;;;;;;;;;5067353;28;20226;-83
2021/07/14 13:48:59;;;;;;;1.80;1.70;;;;;;;;;;5068667;28;20250;-83
2021/07/14 13:51:33;;;;;;;2.10;2.00;;;;;;;;;;5066745;28;20218;-84
2021/07/14 13:54:15;;;;;;;1.97;1.87;;;;;;;;;;5068823;28;20206;-83
2021/07/14 13:56:43;;;;;;;2.00;1.90;;;;;;;;;;5062631;28;20203;-82
2021/07/14 13:59:19;;;;;;;1.80;1.70;;;;;;;;;;5055830;28;20175;-83
2021/07/14 14:01:53;;;;;;;2.27;2.07;;;;;;;;;;5054147;28;20210;-84
2021/07/14 14:04:21;;;;;;;2.30;1.90;;;;;;;;;;5055913;28;20176;-82
2021/07/14 14:06:47;;;;;;;2.03;1.93;;;;;;;;;;5053774;28;20250;-84
2021/07/14 14:09:16;;;;;;;2.47;1.90;;;;;;;;;;5054588;28;20651;-84
2021/07/14 14:11:44;;;;;;;2.27;2.10;;;;;;;;;;5055735;28;20187;-83
2021/07/14 14:14:13;;;;;;;5.23;1.80;;;;;;;;;;5055631;28;20194;-86
2021/07/14 14:16:40;;;;;;;1.40;1.40;;;;;;;;;;5054515;28;20275;-87
2021/07/14 14:19:07;;;;;;;6.50;1.70;;;;;;;;;;5054144;28;20227;-82
2021/07/14 14:21:34;;;;;;;1.80;1.70;;;;;;;;;;5053834;28;20211;-84
2021/07/14 14:24:04;;;;;;;1.70;1.60;;;;;;;;;;5055342;28;20712;-85
2021/07/14 14:26:31;;;;;;;1.97;1.73;;;;;;;;;;5053945;28;20246;-84
2021/07/14 14:28:59;;;;;;;1.40;1.40;;;;;;;;;;5055460;28;20500;-84
2021/07/14 14:31:26;;;;;;;1.70;1.60;;;;;;;;;;5055746;28;20187;-82
2021/07/14 14:33:54;;;;;;;1.43;1.43;;;;;;;;;;5053941;28;20187;-84
2021/07/14 14:36:21;;;;;;;1.73;1.60;;;;;;;;;;5053247;28;20559;-86
2021/07/14 14:38:48;;;;;;;1.90;1.80;;;;;;;;;;5053699;28;20226;-85
2021/07/14 14:41:15;;;;;;;1.40;1.40;;;;;;;;;;5053495;28;20679;-83
2021/07/14 14:43:41;;;;;;;1.80;1.60;;;;;;;;;;5053767;28;20195;-83
2021/07/14 14:46:11;;;;;;;4.00;1.63;;;;;;;;;;5067847;28;20269;-83
2021/07/14 14:48:39;;;;;;;1.50;1.50;;;;;;;;;;5056560;28;20206;-84
2021/07/14 14:51:06;;;;;;;2.43;1.60;;;;;;;;;;5056612;28;20687;-84
2021/07/14 14:53:33;;;;;;;3.47;1.50;;;;;;;;;;5056655;28;20203;-85
2021/07/14 14:55:59;;;;;;;2.73;1.40;;;;;;;;;;5056426;28;20206;-85
2021/07/14 14:58:26;;;;;;;1.60;1.50;;;;;;;;;;5073874;28;20213;-85
2021/07/14 15:00:53;;;;;;;3.97;1.47;;;;;;;;;;5056271;28;20214;-85